sensor_id;sensor_type;location;lat;lon;timestamp;pressure;altitude;pressure_sealevel;temperature;humidity
39891;BME280;25564;53.312;9.790;2023-04-26T00:01:06;100799.09;;;3.28;94.95
39891;BME280;25564;53.312;9.790;2023-04-26T00:03:38;100784.03;;;3.14;95.87
39891;BME280;25564;53.312;9.790;2023-04-26T00:06:11;100796.31;;;3.18;94.74
39891;BME280;25564;53.312;9.790;2023-04-26T00:08:44;100793.66;;;3.13;94.64
39891;BME280;25564;53.312;9.790;2023-04-26T00:11:15;100796.25;;;3.10;95.29
39891;BME280;25564;53.312;9.790;2023-04-26T00:13:47;100799.72;;;3.08;95.19
39891;BME280;25564;53.312;9.790;2023-04-26T00:16:19;100797.06;;;3.05;94.58
39891;BME280;25564;53.312;9.790;2023-04-26T00:18:51;100804.00;;;3.01;95.17
39891;BME280;25564;53.312;9.790;2023-04-26T00:21:22;100778.41;;;2.83;95.34
39891;BME280;25564;53.312;9.790;2023-04-26T00:23:54;100799.59;;;3.00;95.39
39891;BME280;25564;53.312;9.790;2023-04-26T00:26:25;100802.22;;;3.00;94.95
39891;BME280;25564;53.312;9.790;2023-04-26T00:28:56;100798.66;;;2.95;94.99
39891;BME280;25564;53.312;9.790;2023-04-26T00:31:28;100801.28;;;2.95;95.23
39891;BME280;25564;53.312;9.790;2023-04-26T00:33:59;100814.38;;;2.95;94.91
39891;BME280;25564;53.312;9.790;2023-04-26T00:36:30;100801.16;;;2.87;95.42
39891;BME280;25564;53.312;9.790;2023-04-26T00:39:02;100806.47;;;2.90;95.38
39891;BME280;25564;53.312;9.790;2023-04-26T00:41:34;100793.31;;;2.89;94.92
39891;BME280;25564;53.312;9.790;2023-04-26T00:44:05;100781.97;;;2.88;95.33
39891;BME280;25564;53.312;9.790;2023-04-26T00:46:36;100803.94;;;2.98;95.35
39891;BME280;25564;53.312;9.790;2023-04-26T00:49:10;100781.00;;;2.82;95.20
39891;BME280;25564;53.312;9.790;2023-04-26T00:51:46;100789.75;;;2.84;94.99
39891;BME280;25564;53.312;9.790;2023-04-26T00:54:19;100808.16;;;2.88;95.32
39891;BME280;25564;53.312;9.790;2023-04-26T00:56:51;100801.09;;;2.83;94.98
39891;BME280;25564;53.312;9.790;2023-04-26T00:59:23;100787.94;;;2.80;95.17
39891;BME280;25564;53.312;9.790;2023-04-26T01:01:54;100797.84;;;2.99;95.89
39891;BME280;25564;53.312;9.790;2023-04-26T01:04:26;100804.97;;;3.09;96.15
39891;BME280;25564;53.312;9.790;2023-04-26T01:06:59;100797.97;;;3.08;95.48
39891;BME280;25564;53.312;9.790;2023-04-26T01:09:32;100802.28;;;3.03;95.47
39891;BME280;25564;53.312;9.790;2023-04-26T01:12:03;100801.31;;;2.98;95.75
39891;BME280;25564;53.312;9.790;2023-04-26T01:14:38;100795.00;;;2.84;95.59
39891;BME280;25564;53.312;9.790;2023-04-26T01:17:10;100794.91;;;2.78;95.56
39891;BME280;25564;53.312;9.790;2023-04-26T01:19:48;100798.34;;;2.74;95.65
39891;BME280;25564;53.312;9.790;2023-04-26T01:22:20;100810.59;;;2.76;95.38
39891;BME280;25564;53.312;9.790;2023-04-26T01:24:53;100808.81;;;2.74;95.81
39891;BME280;25564;53.312;9.790;2023-04-26T01:27:25;100805.28;;;2.72;95.31
39891;BME280;25564;53.312;9.790;2023-04-26T01:29:57;100818.38;;;2.70;95.41
39891;BME280;25564;53.312;9.790;2023-04-26T01:32:28;100808.69;;;2.65;94.92
39891;BME280;25564;53.312;9.790;2023-04-26T01:34:59;100816.63;;;2.71;95.03
39891;BME280;25564;53.312;9.790;2023-04-26T01:37:31;100812.16;;;2.63;94.94
39891;BME280;25564;53.312;9.790;2023-04-26T01:40:02;100791.78;;;2.46;95.37
39891;BME280;25564;53.312;9.790;2023-04-26T01:42:37;100814.66;;;2.56;95.74
39891;BME280;25564;53.312;9.790;2023-04-26T01:45:08;100819.03;;;2.57;95.65
39891;BME280;25564;53.312;9.790;2023-04-26T01:47:40;100824.25;;;2.55;95.76
39891;BME280;25564;53.312;9.790;2023-04-26T01:50:11;100823.34;;;2.53;95.13
39891;BME280;25564;53.312;9.790;2023-04-26T01:52:42;100823.28;;;2.50;95.76
39891;BME280;25564;53.312;9.790;2023-04-26T01:55:14;100811.88;;;2.47;95.44
39891;BME280;25564;53.312;9.790;2023-04-26T01:57:45;100820.66;;;2.50;95.05
39891;BME280;25564;53.312;9.790;2023-04-26T02:00:17;100814.50;;;2.48;95.38
39891;BME280;25564;53.312;9.790;2023-04-26T02:02:48;100819.75;;;2.48;95.41
39891;BME280;25564;53.312;9.790;2023-04-26T02:05:20;100824.13;;;2.49;94.85
39891;BME280;25564;53.312;9.790;2023-04-26T02:07:51;100820.63;;;2.47;95.70
39891;BME280;25564;53.312;9.790;2023-04-26T02:10:23;100818.00;;;2.47;95.63
39891;BME280;25564;53.312;9.790;2023-04-26T02:12:54;100826.69;;;2.45;95.51
39891;BME280;25564;53.312;9.790;2023-04-26T02:15:25;100828.38;;;2.43;95.63
39891;BME280;25564;53.312;9.790;2023-04-26T02:17:57;100806.41;;;2.33;95.08
39891;BME280;25564;53.312;9.790;2023-04-26T02:20:28;100799.41;;;2.32;95.75
39891;BME280;25564;53.312;9.790;2023-04-26T02:23:00;100785.31;;;2.25;95.65
39891;BME280;25564;53.312;9.790;2023-04-26T02:25:31;100813.50;;;2.40;95.73
39891;BME280;25564;53.312;9.790;2023-04-26T02:28:06;100785.44;;;2.33;95.73
39891;BME280;25564;53.312;9.790;2023-04-26T02:30:37;100822.44;;;2.53;95.86
39891;BME280;25564;53.312;9.790;2023-04-26T02:33:09;100819.84;;;2.54;95.26
39891;BME280;25564;53.312;9.790;2023-04-26T02:35:40;100823.34;;;2.55;95.54
39891;BME280;25564;53.312;9.790;2023-04-26T02:38:12;100781.94;;;2.33;95.28
39891;BME280;25564;53.312;9.790;2023-04-26T02:40:43;100821.53;;;2.51;95.13
39891;BME280;25564;53.312;9.790;2023-04-26T02:43:14;100828.50;;;2.49;95.56
39891;BME280;25564;53.312;9.790;2023-04-26T02:45:46;100788.78;;;2.23;95.51
39891;BME280;25564;53.312;9.790;2023-04-26T02:48:17;100816.13;;;2.40;95.36
39891;BME280;25564;53.312;9.790;2023-04-26T02:50:49;100823.19;;;2.44;95.16
39891;BME280;25564;53.312;9.790;2023-04-26T02:53:20;100823.94;;;2.37;95.51
39891;BME280;25564;53.312;9.790;2023-04-26T02:55:51;100808.13;;;2.33;95.57
39891;BME280;25564;53.312;9.790;2023-04-26T02:58:23;100830.94;;;2.38;95.32
39891;BME280;25564;53.312;9.790;2023-04-26T03:00:56;100829.06;;;2.31;95.66
39891;BME280;25564;53.312;9.790;2023-04-26T03:03:31;100823.72;;;2.25;95.02
39891;BME280;25564;53.312;9.790;2023-04-26T03:06:03;100808.72;;;2.16;95.14
39891;BME280;25564;53.312;9.790;2023-04-26T03:08:34;100836.09;;;2.34;95.18
39891;BME280;25564;53.312;9.790;2023-04-26T03:11:06;100834.41;;;2.37;95.43
39891;BME280;25564;53.312;9.790;2023-04-26T03:13:38;100815.06;;;2.29;95.18
39891;BME280;25564;53.312;9.790;2023-04-26T03:16:09;100832.84;;;2.48;95.45
39891;BME280;25564;53.312;9.790;2023-04-26T03:18:41;100814.50;;;2.48;95.84
39891;BME280;25564;53.312;9.790;2023-04-26T03:21:12;100828.88;;;2.72;95.59
39891;BME280;25564;53.312;9.790;2023-04-26T03:23:43;100830.75;;;2.80;95.93
39891;BME280;25564;53.312;9.790;2023-04-26T03:26:15;100831.69;;;2.84;95.89
39891;BME280;25564;53.312;9.790;2023-04-26T03:28:46;100836.16;;;2.89;96.26
39891;BME280;25564;53.312;9.790;2023-04-26T03:31:17;100822.91;;;2.82;96.63
39891;BME280;25564;53.312;9.790;2023-04-26T03:33:51;100855.63;;;3.07;96.43
39891;BME280;25564;53.312;9.790;2023-04-26T03:36:22;100857.50;;;3.17;96.64
39891;BME280;25564;53.312;9.790;2023-04-26T03:38:53;100864.63;;;3.27;97.03
39891;BME280;25564;53.312;9.790;2023-04-26T03:41:25;100861.16;;;3.28;96.31
39891;BME280;25564;53.312;9.790;2023-04-26T03:43:56;100855.03;;;3.27;96.43
39891;BME280;25564;53.312;9.790;2023-04-26T03:46:27;100838.41;;;3.27;97.05
39891;BME280;25564;53.312;9.790;2023-04-26T03:48:59;100831.31;;;3.18;96.36
39891;BME280;25564;53.312;9.790;2023-04-26T03:51:31;100847.19;;;3.29;97.21
39891;BME280;25564;53.312;9.790;2023-04-26T03:54:03;100845.41;;;3.28;97.11
39891;BME280;25564;53.312;9.790;2023-04-26T03:56:34;100813.69;;;3.07;97.64
39891;BME280;25564;53.312;9.790;2023-04-26T03:59:07;100814.50;;;3.03;96.96
39891;BME280;25564;53.312;9.790;2023-04-26T04:01:40;100782.63;;;2.74;97.17
39891;BME280;25564;53.312;9.790;2023-04-26T04:04:11;100847.69;;;3.01;97.33
39891;BME280;25564;53.312;9.790;2023-04-26T04:06:43;100844.09;;;2.95;96.92
39891;BME280;25564;53.312;9.790;2023-04-26T04:09:14;100841.34;;;2.86;97.32
39891;BME280;25564;53.312;9.790;2023-04-26T04:11:45;100842.19;;;2.85;97.51
39891;BME280;25564;53.312;9.790;2023-04-26T04:14:17;100820.09;;;2.70;97.15
39891;BME280;25564;53.312;9.790;2023-04-26T04:16:49;100822.72;;;2.70;97.08
39891;BME280;25564;53.312;9.790;2023-04-26T04:19:20;100831.44;;;2.69;96.79
39891;BME280;25564;53.312;9.790;2023-04-26T04:21:52;100841.88;;;2.66;97.27
39891;BME280;25564;53.312;9.790;2023-04-26T04:24:23;100841.06;;;2.70;96.87
39891;BME280;25564;53.312;9.790;2023-04-26T04:26:55;100788.19;;;2.41;97.37
39891;BME280;25564;53.312;9.790;2023-04-26T04:29:27;100819.06;;;2.60;96.73
39891;BME280;25564;53.312;9.790;2023-04-26T04:31:58;100848.09;;;2.72;96.54
39891;BME280;25564;53.312;9.790;2023-04-26T04:34:33;100837.59;;;2.71;97.29
39891;BME280;25564;53.312;9.790;2023-04-26T04:37:04;100818.19;;;2.59;96.81
39891;BME280;25564;53.312;9.790;2023-04-26T04:39:36;100821.91;;;2.74;97.15
39891;BME280;25564;53.312;9.790;2023-04-26T04:42:07;100831.88;;;2.96;97.57
39891;BME280;25564;53.312;9.790;2023-04-26T04:44:40;100856.72;;;3.24;98.21
39891;BME280;25564;53.312;9.790;2023-04-26T04:47:12;100859.59;;;3.41;97.11
39891;BME280;25564;53.312;9.790;2023-04-26T04:49:44;100856.19;;;3.48;97.28
39891;BME280;25564;53.312;9.790;2023-04-26T04:52:15;100868.50;;;3.53;97.15
39891;BME280;25564;53.312;9.790;2023-04-26T04:54:49;100855.41;;;3.55;97.15
39891;BME280;25564;53.312;9.790;2023-04-26T04:57:20;100841.34;;;3.50;97.71
39891;BME280;25564;53.312;9.790;2023-04-26T04:59:51;100862.84;;;3.89;98.38
39891;BME280;25564;53.312;9.790;2023-04-26T05:02:23;100843.88;;;4.15;98.64
39891;BME280;25564;53.312;9.790;2023-04-26T05:04:56;100845.88;;;4.42;98.36
39891;BME280;25564;53.312;9.790;2023-04-26T05:07:27;100850.47;;;4.66;99.25
39891;BME280;25564;53.312;9.790;2023-04-26T05:09:59;100842.59;;;4.69;97.94
39891;BME280;25564;53.312;9.790;2023-04-26T05:12:30;100851.34;;;4.68;98.93
39891;BME280;25564;53.312;9.790;2023-04-26T05:15:03;100845.19;;;4.64;98.05
39891;BME280;25564;53.312;9.790;2023-04-26T05:17:34;100843.38;;;4.58;97.92
39891;BME280;25564;53.312;9.790;2023-04-26T05:20:07;100846.88;;;4.57;98.67
39891;BME280;25564;53.312;9.790;2023-04-26T05:22:38;100854.78;;;4.57;97.68
39891;BME280;25564;53.312;9.790;2023-04-26T05:25:10;100856.50;;;4.55;98.68
39891;BME280;25564;53.312;9.790;2023-04-26T05:27:41;100861.72;;;4.52;98.22
39891;BME280;25564;53.312;9.790;2023-04-26T05:30:13;100865.28;;;4.57;98.32
39891;BME280;25564;53.312;9.790;2023-04-26T05:32:44;100868.84;;;4.66;98.93
39891;BME280;25564;53.312;9.790;2023-04-26T05:35:18;100854.94;;;4.77;98.85
39891;BME280;25564;53.312;9.790;2023-04-26T05:37:49;100836.53;;;4.76;99.13
39891;BME280;25564;53.312;9.790;2023-04-26T05:40:20;100858.53;;;4.90;98.67
39891;BME280;25564;53.312;9.790;2023-04-26T05:42:52;100865.59;;;4.96;98.81
39891;BME280;25564;53.312;9.790;2023-04-26T05:45:23;100842.78;;;4.90;98.88
39891;BME280;25564;53.312;9.790;2023-04-26T05:47:55;100861.25;;;5.01;98.47
39891;BME280;25564;53.312;9.790;2023-04-26T05:50:27;100868.31;;;5.08;98.50
39891;BME280;25564;53.312;9.790;2023-04-26T05:52:58;100868.38;;;5.14;98.54
39891;BME280;25564;53.312;9.790;2023-04-26T05:55:32;100863.13;;;5.21;99.07
39891;BME280;25564;53.312;9.790;2023-04-26T05:58:03;100872.31;;;5.95;100.00
39891;BME280;25564;53.312;9.790;2023-04-26T06:00:36;100866.19;;;7.53;100.00
39891;BME280;25564;53.312;9.790;2023-04-26T06:03:08;100859.44;;;8.70;97.01
39891;BME280;25564;53.312;9.790;2023-04-26T06:05:40;100867.03;;;9.09;89.73
39891;BME280;25564;53.312;9.790;2023-04-26T06:08:11;100863.88;;;9.57;88.39
39891;BME280;25564;53.312;9.790;2023-04-26T06:10:43;100873.03;;;10.05;89.16
39891;BME280;25564;53.312;9.790;2023-04-26T06:13:14;100872.34;;;10.54;89.48
39891;BME280;25564;53.312;9.790;2023-04-26T06:15:46;100876.34;;;10.82;89.15
39891;BME280;25564;53.312;9.790;2023-04-26T06:18:17;100879.00;;;10.82;89.57
39891;BME280;25564;53.312;9.790;2023-04-26T06:20:49;100872.06;;;10.72;90.33
39891;BME280;25564;53.312;9.790;2023-04-26T06:23:21;100860.31;;;10.31;91.25
39891;BME280;25564;53.312;9.790;2023-04-26T06:25:52;100859.00;;;9.97;92.00
39891;BME280;25564;53.312;9.790;2023-04-26T06:28:23;100867.06;;;9.86;93.96
39891;BME280;25564;53.312;9.790;2023-04-26T06:30:55;100872.25;;;9.97;95.32
39891;BME280;25564;53.312;9.790;2023-04-26T06:33:26;100869.81;;;9.78;95.67
39891;BME280;25564;53.312;9.790;2023-04-26T06:35:58;100870.22;;;9.42;95.85
39891;BME280;25564;53.312;9.790;2023-04-26T06:38:29;100877.22;;;9.49;97.65
39891;BME280;25564;53.312;9.790;2023-04-26T06:41:00;100884.06;;;9.68;99.47
39891;BME280;25564;53.312;9.790;2023-04-26T06:43:32;100879.72;;;9.61;99.40
39891;BME280;25564;53.312;9.790;2023-04-26T06:46:03;100884.69;;;9.10;97.49
39891;BME280;25564;53.312;9.790;2023-04-26T06:48:35;100864.75;;;8.65;97.92
39891;BME280;25564;53.312;9.790;2023-04-26T06:51:06;100891.28;;;8.56;99.91
39891;BME280;25564;53.312;9.790;2023-04-26T06:53:39;100891.41;;;8.33;99.88
39891;BME280;25564;53.312;9.790;2023-04-26T06:56:11;100888.84;;;8.15;100.00
39891;BME280;25564;53.312;9.790;2023-04-26T06:58:58;100872.13;;;8.11;100.00
39891;BME280;25564;53.312;9.790;2023-04-26T07:01:30;100878.25;;;8.19;100.00
39891;BME280;25564;53.312;9.790;2023-04-26T07:04:05;100868.56;;;8.23;100.00
39891;BME280;25564;53.312;9.790;2023-04-26T07:06:41;100893.94;;;8.51;100.00
39891;BME280;25564;53.312;9.790;2023-04-26T07:09:12;100887.56;;;8.83;100.00
39891;BME280;25564;53.312;9.790;2023-04-26T07:11:45;100870.41;;;9.27;100.00
39891;BME280;25564;53.312;9.790;2023-04-26T07:14:17;100890.84;;;9.94;100.00
39891;BME280;25564;53.312;9.790;2023-04-26T07:16:49;100889.72;;;10.13;100.00
39891;BME280;25564;53.312;9.790;2023-04-26T07:19:20;100907.47;;;10.08;98.81
39891;BME280;25564;53.312;9.790;2023-04-26T07:21:51;100892.69;;;9.86;99.21
39891;BME280;25564;53.312;9.790;2023-04-26T07:24:23;100887.75;;;9.54;97.45
39891;BME280;25564;53.312;9.790;2023-04-26T07:26:55;100916.09;;;9.47;97.49
39891;BME280;25564;53.312;9.790;2023-04-26T07:29:27;100915.34;;;9.36;95.03
39891;BME280;25564;53.312;9.790;2023-04-26T07:31:58;100925.25;;;9.14;93.65
39891;BME280;25564;53.312;9.790;2023-04-26T07:34:30;100930.66;;;9.00;94.02
39891;BME280;25564;53.312;9.790;2023-04-26T07:37:01;100930.75;;;8.88;95.87
39891;BME280;25564;53.312;9.790;2023-04-26T07:39:33;100940.47;;;8.84;96.77
39891;BME280;25564;53.312;9.790;2023-04-26T07:42:05;100926.31;;;8.92;96.94
39891;BME280;25564;53.312;9.790;2023-04-26T07:44:37;100932.44;;;8.95;94.59
39891;BME280;25564;53.312;9.790;2023-04-26T07:47:11;100907.84;;;8.84;94.88
39891;BME280;25564;53.312;9.790;2023-04-26T07:49:43;100929.00;;;8.84;94.04
39891;BME280;25564;53.312;9.790;2023-04-26T07:52:17;100924.63;;;8.80;94.58
39891;BME280;25564;53.312;9.790;2023-04-26T07:54:49;100921.06;;;8.85;95.88
39891;BME280;25564;53.312;9.790;2023-04-26T07:57:20;100905.03;;;9.05;96.70
39891;BME280;25564;53.312;9.790;2023-04-26T07:59:52;100924.97;;;9.40;96.46
39891;BME280;25564;53.312;9.790;2023-04-26T08:02:23;100915.00;;;9.68;96.50
39891;BME280;25564;53.312;9.790;2023-04-26T08:05:14;100926.34;;;9.80;95.51
39891;BME280;25564;53.312;9.790;2023-04-26T08:07:46;100928.09;;;9.81;93.86
39891;BME280;25564;53.312;9.790;2023-04-26T08:10:17;100926.41;;;9.74;93.54
39891;BME280;25564;53.312;9.790;2023-04-26T08:12:49;100917.28;;;10.00;94.09
39891;BME280;25564;53.312;9.790;2023-04-26T08:15:20;100927.78;;;10.73;94.98
39891;BME280;25564;53.312;9.790;2023-04-26T08:17:51;100926.63;;;10.91;94.24
39891;BME280;25564;53.312;9.790;2023-04-26T08:20:24;100928.44;;;10.89;94.31
39891;BME280;25564;53.312;9.790;2023-04-26T08:22:55;100933.47;;;11.06;92.86
39891;BME280;25564;53.312;9.790;2023-04-26T08:25:27;100937.69;;;11.19;93.15
39891;BME280;25564;53.312;9.790;2023-04-26T08:27:59;100936.66;;;11.28;92.63
39891;BME280;25564;53.312;9.790;2023-04-26T08:30:32;100929.69;;;11.21;90.06
39891;BME280;25564;53.312;9.790;2023-04-26T08:33:03;100946.25;;;11.38;91.20
39891;BME280;25564;53.312;9.790;2023-04-26T08:35:35;100947.03;;;11.43;90.36
39891;BME280;25564;53.312;9.790;2023-04-26T08:38:06;100920.47;;;11.43;90.83
39891;BME280;25564;53.312;9.790;2023-04-26T08:40:38;100922.41;;;11.33;90.71
39891;BME280;25564;53.312;9.790;2023-04-26T08:43:13;100942.69;;;11.37;90.00
39891;BME280;25564;53.312;9.790;2023-04-26T08:45:45;100935.44;;;11.45;90.01
39891;BME280;25564;53.312;9.790;2023-04-26T08:48:17;100949.41;;;11.57;90.24
39891;BME280;25564;53.312;9.790;2023-04-26T08:50:50;100938.25;;;11.39;88.43
39891;BME280;25564;53.312;9.790;2023-04-26T08:53:22;100939.00;;;10.92;86.68
39891;BME280;25564;53.312;9.790;2023-04-26T08:55:55;100946.44;;;10.69;87.04
39891;BME280;25564;53.312;9.790;2023-04-26T08:58:26;100956.03;;;10.10;82.57
39891;BME280;25564;53.312;9.790;2023-04-26T09:00:58;100961.38;;;9.20;84.85
39891;BME280;25564;53.312;9.790;2023-04-26T09:03:31;100960.88;;;8.66;87.34
39891;BME280;25564;53.312;9.790;2023-04-26T09:06:05;100964.44;;;8.56;90.48
39891;BME280;25564;53.312;9.790;2023-04-26T09:08:39;100947.88;;;8.20;89.25
39891;BME280;25564;53.312;9.790;2023-04-26T09:11:11;100958.44;;;8.23;91.12
39891;BME280;25564;53.312;9.790;2023-04-26T09:13:43;100963.63;;;8.46;92.44
39891;BME280;25564;53.312;9.790;2023-04-26T09:16:14;100966.19;;;8.63;92.04
39891;BME280;25564;53.312;9.790;2023-04-26T09:18:48;100965.19;;;8.79;92.68
39891;BME280;25564;53.312;9.790;2023-04-26T09:21:22;100958.91;;;8.98;92.81
39891;BME280;25564;53.312;9.790;2023-04-26T09:24:00;100938.56;;;9.05;93.43
39891;BME280;25564;53.312;9.790;2023-04-26T09:26:37;100965.56;;;9.42;92.73
39891;BME280;25564;53.312;9.790;2023-04-26T09:29:13;100955.84;;;9.45;91.32
39891;BME280;25564;53.312;9.790;2023-04-26T09:31:47;100956.78;;;9.37;91.64
39891;BME280;25564;53.312;9.790;2023-04-26T09:34:20;100944.28;;;9.54;92.72
39891;BME280;25564;53.312;9.790;2023-04-26T09:36:53;100943.84;;;9.94;90.81
39891;BME280;25564;53.312;9.790;2023-04-26T09:39:35;100951.53;;;10.16;90.31
39891;BME280;25564;53.312;9.790;2023-04-26T09:42:08;100960.72;;;10.59;91.36
39891;BME280;25564;53.312;9.790;2023-04-26T09:44:40;100967.41;;;10.87;90.57
39891;BME280;25564;53.312;9.790;2023-04-26T09:47:11;100962.44;;;11.23;89.88
39891;BME280;25564;53.312;9.790;2023-04-26T09:49:49;100978.41;;;11.20;88.14
39891;BME280;25564;53.312;9.790;2023-04-26T09:52:21;100964.81;;;10.84;84.17
39891;BME280;25564;53.312;9.790;2023-04-26T09:54:53;100981.22;;;10.47;84.12
39891;BME280;25564;53.312;9.790;2023-04-26T09:57:25;100980.56;;;10.33;85.85
39891;BME280;25564;53.312;9.790;2023-04-26T09:59:56;100984.78;;;10.45;87.53
39891;BME280;25564;53.312;9.790;2023-04-26T10:02:28;100987.97;;;10.71;87.93
39891;BME280;25564;53.312;9.790;2023-04-26T10:05:00;100980.63;;;10.90;87.74
39891;BME280;25564;53.312;9.790;2023-04-26T10:07:33;100971.31;;;11.20;88.62
39891;BME280;25564;53.312;9.790;2023-04-26T10:10:06;100971.44;;;11.14;86.77
39891;BME280;25564;53.312;9.790;2023-04-26T10:12:39;100985.22;;;11.37;87.53
39891;BME280;25564;53.312;9.790;2023-04-26T10:15:12;100978.19;;;11.35;86.23
39891;BME280;25564;53.312;9.790;2023-04-26T10:17:45;100986.16;;;11.35;87.07
39891;BME280;25564;53.312;9.790;2023-04-26T10:20:17;100974.97;;;11.65;87.59
39891;BME280;25564;53.312;9.790;2023-04-26T10:22:52;100976.00;;;12.06;87.34
39891;BME280;25564;53.312;9.790;2023-04-26T10:25:38;100976.19;;;12.41;86.64
39891;BME280;25564;53.312;9.790;2023-04-26T10:28:09;100970.13;;;12.73;86.74
39891;BME280;25564;53.312;9.790;2023-04-26T10:30:55;100955.09;;;13.09;85.60
39891;BME280;25564;53.312;9.790;2023-04-26T10:33:26;100958.28;;;13.59;86.19
39891;BME280;25564;53.312;9.790;2023-04-26T10:36:13;100945.44;;;14.06;85.25
39891;BME280;25564;53.312;9.790;2023-04-26T10:41:47;100939.16;;;14.08;83.01
39891;BME280;25564;53.312;9.790;2023-04-26T10:47:29;100949.72;;;14.44;82.62
39891;BME280;25564;53.312;9.790;2023-04-26T10:50:09;100933.41;;;13.91;78.07
39891;BME280;25564;53.312;9.790;2023-04-26T10:55:41;100931.47;;;12.94;83.28
39891;BME280;25564;53.312;9.790;2023-04-26T10:58:26;100943.72;;;13.01;82.94
39891;BME280;25564;53.312;9.790;2023-04-26T11:01:08;100956.00;;;13.08;82.46
39891;BME280;25564;53.312;9.790;2023-04-26T11:04:01;100961.47;;;13.02;76.80
39891;BME280;25564;53.312;9.790;2023-04-26T11:06:49;100935.84;;;12.58;75.27
39891;BME280;25564;53.312;9.790;2023-04-26T11:09:37;100945.94;;;12.46;75.87
39891;BME280;25564;53.312;9.790;2023-04-26T11:12:13;100950.25;;;12.50;76.44
39891;BME280;25564;53.312;9.790;2023-04-26T11:14:45;100952.50;;;12.28;74.25
39891;BME280;25564;53.312;9.790;2023-04-26T11:17:16;100958.91;;;12.19;76.99
39891;BME280;25564;53.312;9.790;2023-04-26T11:19:48;100966.06;;;12.16;77.46
39891;BME280;25564;53.312;9.790;2023-04-26T11:22:21;100932.19;;;11.81;74.71
39891;BME280;25564;53.312;9.790;2023-04-26T11:24:53;100957.09;;;11.73;77.76
39891;BME280;25564;53.312;9.790;2023-04-26T11:27:26;100929.94;;;11.56;78.44
39891;BME280;25564;53.312;9.790;2023-04-26T11:30:02;100946.41;;;11.76;77.59
39891;BME280;25564;53.312;9.790;2023-04-26T11:32:34;100906.50;;;11.32;76.89
39891;BME280;25564;53.312;9.790;2023-04-26T11:35:06;100933.16;;;11.26;78.44
39891;BME280;25564;53.312;9.790;2023-04-26T11:37:37;100943.22;;;11.05;77.90
39891;BME280;25564;53.312;9.790;2023-04-26T11:40:09;100932.91;;;10.87;79.15
39891;BME280;25564;53.312;9.790;2023-04-26T11:42:43;100920.72;;;10.74;79.21
39891;BME280;25564;53.312;9.790;2023-04-26T11:45:15;100923.72;;;11.08;79.66
39891;BME280;25564;53.312;9.790;2023-04-26T11:47:47;100946.53;;;11.69;77.77
39891;BME280;25564;53.312;9.790;2023-04-26T11:50:19;100947.59;;;12.08;77.64
39891;BME280;25564;53.312;9.790;2023-04-26T11:52:53;100949.63;;;12.38;77.72
39891;BME280;25564;53.312;9.790;2023-04-26T11:55:29;100944.44;;;12.71;76.95
39891;BME280;25564;53.312;9.790;2023-04-26T11:58:13;100948.22;;;12.61;76.69
39891;BME280;25564;53.312;9.790;2023-04-26T12:01:00;100962.75;;;12.04;71.92
39891;BME280;25564;53.312;9.790;2023-04-26T12:03:33;100975.25;;;11.48;76.64
39891;BME280;25564;53.312;9.790;2023-04-26T12:06:08;100977.31;;;10.76;76.73
39891;BME280;25564;53.312;9.790;2023-04-26T12:08:39;100985.22;;;10.08;77.48
39891;BME280;25564;53.312;9.790;2023-04-26T12:11:15;100980.44;;;9.60;79.08
39891;BME280;25564;53.312;9.790;2023-04-26T12:13:46;100971.16;;;9.11;81.43
39891;BME280;25564;53.312;9.790;2023-04-26T12:16:18;100980.88;;;9.11;82.95
39891;BME280;25564;53.312;9.790;2023-04-26T12:18:57;100980.75;;;9.25;83.30
39891;BME280;25564;53.312;9.790;2023-04-26T12:21:28;100984.22;;;9.34;84.55
39891;BME280;25564;53.312;9.790;2023-04-26T12:24:01;100961.97;;;9.49;85.13
39891;BME280;25564;53.312;9.790;2023-04-26T12:26:42;100978.94;;;10.19;85.97
39891;BME280;25564;53.312;9.790;2023-04-26T12:29:17;100966.69;;;10.76;87.17
39891;BME280;25564;53.312;9.790;2023-04-26T12:31:48;100971.19;;;11.29;87.19
39891;BME280;25564;53.312;9.790;2023-04-26T12:34:20;100971.50;;;11.60;87.47
39891;BME280;25564;53.312;9.790;2023-04-26T12:36:52;100955.91;;;11.91;88.21
39891;BME280;25564;53.312;9.790;2023-04-26T12:39:23;100972.06;;;12.25;87.88
39891;BME280;25564;53.312;9.790;2023-04-26T12:41:54;100960.06;;;12.48;88.22
39891;BME280;25564;53.312;9.790;2023-04-26T12:44:26;100954.19;;;12.72;87.74
39891;BME280;25564;53.312;9.790;2023-04-26T12:46:57;100961.16;;;12.77;87.52
39891;BME280;25564;53.312;9.790;2023-04-26T12:49:29;100950.66;;;12.31;87.54
39891;BME280;25564;53.312;9.790;2023-04-26T12:52:00;100994.22;;;11.81;83.49
39891;BME280;25564;53.312;9.790;2023-04-26T12:54:32;100980.38;;;11.07;84.16
39891;BME280;25564;53.312;9.790;2023-04-26T12:57:04;100997.47;;;10.89;87.70
39891;BME280;25564;53.312;9.790;2023-04-26T12:59:35;100977.56;;;10.56;87.45
39891;BME280;25564;53.312;9.790;2023-04-26T13:02:08;100995.88;;;10.76;88.42
39891;BME280;25564;53.312;9.790;2023-04-26T13:04:40;100969.59;;;10.58;88.64
39891;BME280;25564;53.312;9.790;2023-04-26T13:07:12;101001.03;;;10.88;88.85
39891;BME280;25564;53.312;9.790;2023-04-26T13:09:44;100996.38;;;11.04;89.14
39891;BME280;25564;53.312;9.790;2023-04-26T13:12:15;100970.84;;;10.94;88.90
39891;BME280;25564;53.312;9.790;2023-04-26T13:14:47;100980.19;;;11.21;89.48
39891;BME280;25564;53.312;9.790;2023-04-26T13:17:19;100992.94;;;11.51;89.12
39891;BME280;25564;53.312;9.790;2023-04-26T13:19:51;100966.09;;;11.66;89.52
39891;BME280;25564;53.312;9.790;2023-04-26T13:22:23;100978.25;;;12.27;88.99
39891;BME280;25564;53.312;9.790;2023-04-26T13:24:54;100993.06;;;12.40;86.99
39891;BME280;25564;53.312;9.790;2023-04-26T13:27:26;100980.25;;;12.16;86.35
39891;BME280;25564;53.312;9.790;2023-04-26T13:30:00;100982.31;;;12.00;83.65
39891;BME280;25564;53.312;9.790;2023-04-26T13:32:32;100992.25;;;11.91;82.82